Time;durP1;ratioP1;P1;durP2;ratioP2;P2;SDS_P1;SDS_P2;PMS_P1;PMS_P2;Temp;Humidity;BMP_temperature;BMP_pressure;BME280_temperature;BME280_humidity;BME280_pressure;Samples;Min_cycle;Max_cycle;Signal;HPM_P1;HPM_P2
2023/05/02 00:01:26;;;;;;;2.95;2.72;;;;;;;;;;5018864;28;20199;-65
2023/05/02 00:03:54;;;;;;;3.97;2.85;;;;;;;;;;5019046;28;20216;-66
2023/05/02 00:06:21;;;;;;;3.17;2.97;;;;;;;;;;5018865;28;20206;-65
2023/05/02 00:08:51;;;;;;;3.17;2.90;;;;;;;;;;5018942;28;20203;-65
2023/05/02 00:11:19;;;;;;;3.28;2.97;;;;;;;;;;5018935;28;20504;-65
2023/05/02 00:13:47;;;;;;;3.20;3.00;;;;;;;;;;5019140;28;20241;-65
2023/05/02 00:16:14;;;;;;;3.00;2.80;;;;;;;;;;5018505;28;20206;-65
2023/05/02 00:18:42;;;;;;;3.13;2.92;;;;;;;;;;5018181;28;20233;-65
2023/05/02 00:21:10;;;;;;;3.40;3.10;;;;;;;;;;5018306;28;20216;-65
2023/05/02 00:23:37;;;;;;;3.15;2.95;;;;;;;;;;5018442;28;20238;-65
2023/05/02 00:26:10;;;;;;;3.20;2.90;;;;;;;;;;5018803;28;20233;-65
2023/05/02 00:28:39;;;;;;;3.38;3.17;;;;;;;;;;5018292;28;20202;-65
2023/05/02 00:31:06;;;;;;;2.85;2.65;;;;;;;;;;5018171;28;20571;-65
2023/05/02 00:33:34;;;;;;;3.30;3.10;;;;;;;;;;5018595;28;20229;-65
2023/05/02 00:36:02;;;;;;;2.85;2.65;;;;;;;;;;5018250;28;20210;-65
2023/05/02 00:38:29;;;;;;;2.65;2.45;;;;;;;;;;5018012;28;20216;-65
2023/05/02 00:40:57;;;;;;;2.97;2.78;;;;;;;;;;5017824;28;20293;-65
2023/05/02 00:43:26;;;;;;;2.80;2.60;;;;;;;;;;5017946;28;20214;-65
2023/05/02 00:45:54;;;;;;;2.90;2.70;;;;;;;;;;5018005;28;20250;-65
2023/05/02 00:48:22;;;;;;;2.85;2.65;;;;;;;;;;5017947;28;20206;-65
2023/05/02 00:50:49;;;;;;;3.00;2.80;;;;;;;;;;5018195;28;20535;-65
2023/05/02 00:53:17;;;;;;;3.03;2.83;;;;;;;;;;5018065;28;20585;-65
2023/05/02 00:55:45;;;;;;;2.78;2.58;;;;;;;;;;5017926;28;20209;-65
2023/05/02 00:58:15;;;;;;;2.70;2.50;;;;;;;;;;5017676;28;20276;-65
2023/05/02 01:00:49;;;;;;;2.70;2.50;;;;;;;;;;5017759;28;20226;-65
2023/05/02 01:03:21;;;;;;;2.97;2.78;;;;;;;;;;5018150;28;20226;-65
2023/05/02 01:05:56;;;;;;;2.90;2.70;;;;;;;;;;5017513;28;20640;-65
2023/05/02 01:08:30;;;;;;;2.70;2.50;;;;;;;;;;5017850;28;20206;-65
2023/05/02 01:11:03;;;;;;;2.83;2.63;;;;;;;;;;5017598;28;20608;-65
2023/05/02 01:13:34;;;;;;;2.88;2.67;;;;;;;;;;5017896;28;20554;-65
2023/05/02 01:16:03;;;;;;;3.00;2.80;;;;;;;;;;5017787;28;20523;-65
2023/05/02 01:18:33;;;;;;;2.80;2.60;;;;;;;;;;5017133;28;20308;-65
2023/05/02 01:21:02;;;;;;;3.20;3.00;;;;;;;;;;5017256;28;20202;-65
2023/05/02 01:23:33;;;;;;;2.67;2.47;;;;;;;;;;5017569;28;20206;-65
2023/05/02 01:26:07;;;;;;;2.90;2.70;;;;;;;;;;5017281;28;20206;-65
2023/05/02 01:28:39;;;;;;;2.80;2.60;;;;;;;;;;5017481;28;20217;-65
2023/05/02 01:31:08;;;;;;;2.67;2.47;;;;;;;;;;5017680;28;20206;-65
2023/05/02 01:33:36;;;;;;;2.90;2.70;;;;;;;;;;5017660;28;20206;-65
2023/05/02 01:36:05;;;;;;;2.83;2.63;;;;;;;;;;5017682;28;20203;-65
2023/05/02 01:38:34;;;;;;;2.70;2.50;;;;;;;;;;5017408;28;20206;-65
2023/05/02 01:41:04;;;;;;;2.60;2.40;;;;;;;;;;5017398;28;20257;-65
2023/05/02 01:43:33;;;;;;;2.67;2.50;;;;;;;;;;5017287;28;20288;-65
2023/05/02 01:46:03;;;;;;;2.90;2.70;;;;;;;;;;5017169;28;20217;-65
2023/05/02 01:48:32;;;;;;;2.22;2.13;;;;;;;;;;5016813;28;20213;-65
2023/05/02 01:51:00;;;;;;;2.90;2.70;;;;;;;;;;5017195;28;20212;-65
2023/05/02 01:53:29;;;;;;;2.60;2.42;;;;;;;;;;5017142;28;20210;-65
2023/05/02 01:55:58;;;;;;;2.90;2.70;;;;;;;;;;5016691;28;20221;-65
2023/05/02 01:58:26;;;;;;;2.67;2.50;;;;;;;;;;5016926;28;20602;-65
2023/05/02 02:00:54;;;;;;;2.65;2.45;;;;;;;;;;5016874;28;20229;-65
2023/05/02 02:03:23;;;;;;;2.83;2.63;;;;;;;;;;5017064;28;20221;-65
2023/05/02 02:05:53;;;;;;;2.60;2.40;;;;;;;;;;5017300;28;20225;-65
2023/05/02 02:08:20;;;;;;;2.65;2.45;;;;;;;;;;5017215;28;20207;-65
2023/05/02 02:10:51;;;;;;;2.75;2.55;;;;;;;;;;5017174;28;20201;-65
2023/05/02 02:13:20;;;;;;;2.80;2.60;;;;;;;;;;5016738;28;20613;-65
2023/05/02 02:15:50;;;;;;;2.70;2.50;;;;;;;;;;5017262;28;20210;-65
2023/05/02 02:18:20;;;;;;;2.70;2.50;;;;;;;;;;5017193;28;20661;-65
2023/05/02 02:20:49;;;;;;;2.60;2.40;;;;;;;;;;5017237;28;20257;-65
2023/05/02 02:23:19;;;;;;;2.60;2.40;;;;;;;;;;5016842;28;20217;-65
2023/05/02 02:25:47;;;;;;;2.67;2.47;;;;;;;;;;5017235;28;20207;-65
2023/05/02 02:28:14;;;;;;;2.50;2.35;;;;;;;;;;5017216;28;20581;-65
2023/05/02 02:30:42;;;;;;;2.65;2.45;;;;;;;;;;5017056;28;20202;-65
2023/05/02 02:33:10;;;;;;;2.35;2.25;;;;;;;;;;5019645;28;20211;-65
2023/05/02 02:35:41;;;;;;;2.63;2.42;;;;;;;;;;5020319;28;20217;-65
2023/05/02 02:38:12;;;;;;;2.70;2.50;;;;;;;;;;5020288;28;20213;-65
2023/05/02 02:40:42;;;;;;;2.40;2.30;;;;;;;;;;5020345;28;20276;-65
2023/05/02 02:43:13;;;;;;;2.20;2.10;;;;;;;;;;5020171;28;20218;-65
2023/05/02 02:45:47;;;;;;;2.60;2.40;;;;;;;;;;5019956;28;20210;-65
2023/05/02 02:48:20;;;;;;;2.60;2.40;;;;;;;;;;5019944;28;20268;-65
2023/05/02 02:50:54;;;;;;;2.28;2.17;;;;;;;;;;5020184;28;20202;-65
2023/05/02 02:53:28;;;;;;;2.33;2.22;;;;;;;;;;5020062;28;20245;-65
2023/05/02 02:55:59;;;;;;;2.50;2.30;;;;;;;;;;5019353;28;20237;-65
2023/05/02 02:58:31;;;;;;;2.67;2.47;;;;;;;;;;5019742;28;20215;-65
2023/05/02 03:01:00;;;;;;;2.20;2.10;;;;;;;;;;5019869;28;20252;-65
2023/05/02 03:03:28;;;;;;;2.70;2.50;;;;;;;;;;5019859;28;20214;-65
2023/05/02 03:05:56;;;;;;;2.47;2.25;;;;;;;;;;5019838;28;20210;-65
2023/05/02 03:08:24;;;;;;;2.22;2.10;;;;;;;;;;5020062;28;20210;-65
2023/05/02 03:10:52;;;;;;;2.58;2.42;;;;;;;;;;5019529;28;20203;-65
2023/05/02 03:13:21;;;;;;;2.70;2.50;;;;;;;;;;5020284;28;20566;-64
2023/05/02 03:16:11;;;;;;;2.40;2.20;;;;;;;;;;5019676;28;20633;-64
2023/05/02 03:18:39;;;;;;;2.30;2.20;;;;;;;;;;4987758;28;20214;-64
2023/05/02 03:21:06;;;;;;;2.60;2.40;;;;;;;;;;5019139;28;20321;-64
2023/05/02 03:23:34;;;;;;;2.78;2.58;;;;;;;;;;5019598;28;20226;-64
2023/05/02 03:26:02;;;;;;;2.22;2.13;;;;;;;;;;5019537;28;20210;-64
2023/05/02 03:28:32;;;;;;;2.08;1.98;;;;;;;;;;5019048;28;20213;-64
2023/05/02 03:30:59;;;;;;;2.22;2.03;;;;;;;;;;5019361;28;20228;-64
2023/05/02 03:33:27;;;;;;;2.33;2.20;;;;;;;;;;5019058;28;20211;-64
2023/05/02 03:35:54;;;;;;;2.20;2.10;;;;;;;;;;5019716;28;20269;-64
2023/05/02 03:38:22;;;;;;;2.17;2.08;;;;;;;;;;5018963;28;20305;-64
2023/05/02 03:40:50;;;;;;;2.50;2.30;;;;;;;;;;5018273;28;20237;-64
2023/05/02 03:43:17;;;;;;;2.17;2.08;;;;;;;;;;5019175;28;20455;-64
2023/05/02 03:45:46;;;;;;;2.42;2.33;;;;;;;;;;5019193;28;20487;-64
2023/05/02 03:48:14;;;;;;;2.63;2.53;;;;;;;;;;5018839;28;20293;-64
2023/05/02 03:50:42;;;;;;;2.25;2.15;;;;;;;;;;5018890;28;20602;-64
2023/05/02 03:53:10;;;;;;;2.28;2.17;;;;;;;;;;5019178;28;20563;-64
2023/05/02 03:55:40;;;;;;;2.42;2.33;;;;;;;;;;5018547;28;20214;-64
2023/05/02 03:58:08;;;;;;;2.35;2.20;;;;;;;;;;5018784;28;20206;-64
2023/05/02 04:00:37;;;;;;;2.20;2.10;;;;;;;;;;5018521;28;20237;-64
2023/05/02 04:03:05;;;;;;;2.00;1.90;;;;;;;;;;5018694;28;20216;-64
2023/05/02 04:05:33;;;;;;;2.25;2.15;;;;;;;;;;5018375;28;20300;-64
2023/05/02 04:08:02;;;;;;;2.33;2.22;;;;;;;;;;5018598;28;20214;-64
2023/05/02 04:10:29;;;;;;;2.00;1.90;;;;;;;;;;5018139;28;20214;-64
2023/05/02 04:12:57;;;;;;;2.60;2.40;;;;;;;;;;5018339;28;20266;-64
2023/05/02 04:15:24;;;;;;;2.50;2.30;;;;;;;;;;5018207;28;20245;-64
2023/05/02 04:17:52;;;;;;;2.25;2.05;;;;;;;;;;5018304;28;20245;-64
2023/05/02 04:20:21;;;;;;;2.28;2.17;;;;;;;;;;5017681;28;20241;-64
2023/05/02 04:22:49;;;;;;;2.10;2.00;;;;;;;;;;5017863;28;20238;-64
2023/05/02 04:25:16;;;;;;;2.35;2.15;;;;;;;;;;5018163;28;20646;-64
2023/05/02 04:27:44;;;;;;;2.58;2.38;;;;;;;;;;5018131;28;20297;-64
2023/05/02 04:30:11;;;;;;;2.17;2.08;;;;;;;;;;5017572;28;20677;-64
2023/05/02 04:32:39;;;;;;;2.38;2.17;;;;;;;;;;5017747;28;20301;-64
2023/05/02 04:35:08;;;;;;;2.15;2.05;;;;;;;;;;5017861;28;20216;-64
2023/05/02 04:37:37;;;;;;;2.30;2.20;;;;;;;;;;5017262;28;20285;-65
2023/05/02 04:40:05;;;;;;;2.13;2.03;;;;;;;;;;5016785;28;20269;-65
2023/05/02 04:42:32;;;;;;;2.20;2.10;;;;;;;;;;5016795;28;20210;-65
2023/05/02 04:45:00;;;;;;;2.17;2.08;;;;;;;;;;5016464;28;20206;-65
2023/05/02 04:47:28;;;;;;;2.20;2.10;;;;;;;;;;5016924;28;20237;-65
2023/05/02 04:49:58;;;;;;;2.20;2.10;;;;;;;;;;5016491;28;20237;-65
2023/05/02 04:52:26;;;;;;;2.15;2.05;;;;;;;;;;5016340;28;20398;-65
2023/05/02 04:54:55;;;;;;;2.20;2.10;;;;;;;;;;5014532;28;20206;-65
2023/05/02 04:57:23;;;;;;;2.60;2.28;;;;;;;;;;5015373;28;20214;-65
2023/05/02 04:59:51;;;;;;;2.30;2.20;;;;;;;;;;5016231;28;20622;-65
2023/05/02 05:02:18;;;;;;;2.22;2.13;;;;;;;;;;5015445;28;20265;-65
2023/05/02 05:04:45;;;;;;;2.35;2.15;;;;;;;;;;5015691;28;20269;-65
2023/05/02 05:07:13;;;;;;;2.30;2.20;;;;;;;;;;5015922;28;20214;-65
2023/05/02 05:09:40;;;;;;;2.40;2.20;;;;;;;;;;5015260;28;20202;-65
2023/05/02 05:12:10;;;;;;;2.22;2.13;;;;;;;;;;5014453;28;20234;-65
2023/05/02 05:14:37;;;;;;;2.50;2.30;;;;;;;;;;5015228;28;20704;-65
2023/05/02 05:17:05;;;;;;;2.30;2.20;;;;;;;;;;5014613;28;20272;-65
2023/05/02 05:19:32;;;;;;;2.63;2.42;;;;;;;;;;5015184;28;20257;-65
2023/05/02 05:21:59;;;;;;;2.47;2.38;;;;;;;;;;5015435;28;20233;-65
2023/05/02 05:24:27;;;;;;;2.50;2.30;;;;;;;;;;5014580;28;20296;-65
2023/05/02 05:26:55;;;;;;;2.10;2.00;;;;;;;;;;5014061;28;20245;-65
2023/05/02 05:29:24;;;;;;;2.35;2.25;;;;;;;;;;5014642;28;20285;-65
2023/05/02 05:31:51;;;;;;;2.15;2.05;;;;;;;;;;5014212;28;20305;-65
2023/05/02 05:34:19;;;;;;;2.78;2.15;;;;;;;;;;5014642;28;20241;-65
2023/05/02 05:36:46;;;;;;;2.17;2.08;;;;;;;;;;5014209;28;20241;-65
2023/05/02 05:39:14;;;;;;;2.25;2.15;;;;;;;;;;5014638;28;20507;-65
2023/05/02 05:41:42;;;;;;;2.08;1.98;;;;;;;;;;5014075;28;20846;-65
2023/05/02 05:44:09;;;;;;;2.13;2.03;;;;;;;;;;5014602;28;20214;-65
2023/05/02 05:46:38;;;;;;;2.50;2.30;;;;;;;;;;5013986;28;20202;-65
2023/05/02 05:49:05;;;;;;;2.28;2.17;;;;;;;;;;5014068;28;20292;-65
2023/05/02 05:51:33;;;;;;;2.40;2.30;;;;;;;;;;5014178;28;20685;-65
2023/05/02 05:54:01;;;;;;;2.50;2.30;;;;;;;;;;5013750;28;20304;-65
2023/05/02 05:56:28;;;;;;;2.50;2.30;;;;;;;;;;5013788;28;20213;-65
2023/05/02 05:58:56;;;;;;;2.85;2.20;;;;;;;;;;5014214;28;20242;-65
2023/05/02 06:01:23;;;;;;;2.33;2.20;;;;;;;;;;5014323;28;20226;-65
2023/05/02 06:03:52;;;;;;;3.03;2.35;;;;;;;;;;5014649;28;20229;-65
2023/05/02 06:06:19;;;;;;;3.85;2.25;;;;;;;;;;5016489;28;20311;-65
2023/05/02 06:08:47;;;;;;;2.58;2.38;;;;;;;;;;5018823;28;20248;-65
2023/05/02 06:11:15;;;;;;;2.40;2.30;;;;;;;;;;5018862;28;20266;-65
2023/05/02 06:13:42;;;;;;;2.30;2.15;;;;;;;;;;5018607;28;20322;-65
2023/05/02 06:16:10;;;;;;;2.53;2.33;;;;;;;;;;5018614;28;20238;-65
2023/05/02 06:18:37;;;;;;;2.15;2.03;;;;;;;;;;5018668;28;20213;-65
2023/05/02 06:21:07;;;;;;;5.32;2.30;;;;;;;;;;5017669;28;20230;-65
2023/05/02 06:23:34;;;;;;;2.50;2.20;;;;;;;;;;5018231;28;20303;-65
2023/05/02 06:26:02;;;;;;;2.63;2.20;;;;;;;;;;5018209;28;20233;-65
2023/05/02 06:28:29;;;;;;;2.30;2.10;;;;;;;;;;5018711;28;20206;-65
2023/05/02 06:31:00;;;;;;;3.70;2.40;;;;;;;;;;5018788;28;20301;-65
2023/05/02 06:33:27;;;;;;;2.35;2.10;;;;;;;;;;5018157;28;20250;-65
2023/05/02 06:35:56;;;;;;;2.65;2.15;;;;;;;;;;5018476;28;20203;-65
2023/05/02 06:38:25;;;;;;;2.47;2.10;;;;;;;;;;5018602;28;20241;-65
2023/05/02 06:40:52;;;;;;;2.50;2.30;;;;;;;;;;5018445;28;20514;-65
2023/05/02 06:43:20;;;;;;;2.63;2.10;;;;;;;;;;5017762;28;20369;-65
2023/05/02 06:45:47;;;;;;;2.55;2.20;;;;;;;;;;5017852;28;20213;-65
2023/05/02 06:48:15;;;;;;;3.15;2.85;;;;;;;;;;5017954;28;20306;-65
2023/05/02 06:50:43;;;;;;;2.75;2.20;;;;;;;;;;5018201;28;20628;-65
2023/05/02 06:53:10;;;;;;;2.30;2.10;;;;;;;;;;5017150;28;20301;-65
2023/05/02 06:55:39;;;;;;;2.30;2.10;;;;;;;;;;5016495;28;20232;-65
2023/05/02 06:58:07;;;;;;;2.20;2.10;;;;;;;;;;5018457;28;20208;-65
2023/05/02 07:00:34;;;;;;;2.20;2.10;;;;;;;;;;5017933;28;20214;-65
2023/05/02 07:03:02;;;;;;;2.72;2.25;;;;;;;;;;5017611;28;20233;-65
2023/05/02 07:05:30;;;;;;;2.50;2.30;;;;;;;;;;5017480;28;20272;-65
2023/05/02 07:07:58;;;;;;;2.80;2.60;;;;;;;;;;5017628;28;20509;-65
2023/05/02 07:10:25;;;;;;;2.70;2.50;;;;;;;;;;5016813;28;20566;-65
2023/05/02 07:12:54;;;;;;;3.47;2.75;;;;;;;;;;5016492;28;20333;-65
2023/05/02 07:15:22;;;;;;;3.65;2.88;;;;;;;;;;5017670;28;20297;-65
2023/05/02 07:17:50;;;;;;;3.15;2.80;;;;;;;;;;5016169;28;20238;-65
2023/05/02 07:20:17;;;;;;;3.13;2.83;;;;;;;;;;5016407;28;20210;-65
2023/05/02 07:22:44;;;;;;;3.20;2.90;;;;;;;;;;5017257;28;20245;-65
2023/05/02 07:25:12;;;;;;;3.63;2.78;;;;;;;;;;5017065;28;20265;-65
2023/05/02 07:27:39;;;;;;;3.10;2.65;;;;;;;;;;5017092;28;20237;-65
2023/05/02 07:30:09;;;;;;;3.35;2.78;;;;;;;;;;5017882;28;20206;-65
2023/05/02 07:32:37;;;;;;;2.83;2.60;;;;;;;;;;5017505;28;20203;-65
2023/05/02 07:35:04;;;;;;;3.65;2.88;;;;;;;;;;5017415;28;20297;-65
2023/05/02 07:37:34;;;;;;;3.53;3.20;;;;;;;;;;5017276;28;20302;-65
2023/05/02 07:40:01;;;;;;;3.55;3.13;;;;;;;;;;5017287;28;20297;-65
2023/05/02 07:42:32;;;;;;;3.70;3.10;;;;;;;;;;5017521;28;20312;-65
2023/05/02 07:45:00;;;;;;;3.75;3.30;;;;;;;;;;5016800;28;20538;-65
2023/05/02 07:47:55;;;;;;;3.67;3.08;;;;;;;;;;5016960;28;20242;-65
2023/05/02 07:50:26;;;;;;;4.22;3.15;;;;;;;;;;5016094;28;20297;-65
2023/05/02 07:52:53;;;;;;;3.65;3.20;;;;;;;;;;5017368;28;20219;-65
2023/05/02 07:55:21;;;;;;;3.35;3.05;;;;;;;;;;5016028;28;20305;-65
2023/05/02 07:57:49;;;;;;;4.30;3.20;;;;;;;;;;5016458;28;20202;-65
2023/05/02 08:00:17;;;;;;;3.80;3.17;;;;;;;;;;5016667;28;20348;-65
2023/05/02 08:02:45;;;;;;;3.35;3.05;;;;;;;;;;5015398;28;20240;-65
2023/05/02 08:05:12;;;;;;;3.33;3.03;;;;;;;;;;5015696;28;20772;-65
2023/05/02 08:07:41;;;;;;;3.53;3.22;;;;;;;;;;5017015;28;20674;-65
2023/05/02 08:10:10;;;;;;;3.55;3.25;;;;;;;;;;5016664;28;20301;-65
2023/05/02 08:12:39;;;;;;;3.53;3.22;;;;;;;;;;5015947;28;20265;-65
2023/05/02 08:15:07;;;;;;;3.85;3.40;;;;;;;;;;5016219;28;20207;-65
2023/05/02 08:17:35;;;;;;;4.18;3.50;;;;;;;;;;5015432;28;20242;-65
2023/05/02 08:20:02;;;;;;;3.58;3.22;;;;;;;;;;5016046;28;20198;-64
2023/05/02 08:22:30;;;;;;;4.45;3.42;;;;;;;;;;5016161;28;20361;-64
2023/05/02 08:25:00;;;;;;;3.80;3.40;;;;;;;;;;5016457;28;20206;-64
2023/05/02 08:27:27;;;;;;;3.95;3.42;;;;;;;;;;5015264;28;20290;-64
2023/05/02 08:29:54;;;;;;;4.93;3.58;;;;;;;;;;5014588;28;20214;-64
2023/05/02 08:32:22;;;;;;;4.20;3.80;;;;;;;;;;5016314;28;20229;-64
2023/05/02 08:34:49;;;;;;;3.67;3.22;;;;;;;;;;5016055;28;20268;-64
2023/05/02 08:37:17;;;;;;;3.90;3.30;;;;;;;;;;5015510;28;20554;-64
2023/05/02 08:39:44;;;;;;;3.67;3.20;;;;;;;;;;5014805;28;20226;-64
2023/05/02 08:42:13;;;;;;;4.22;3.40;;;;;;;;;;5015700;28;20222;-65
2023/05/02 08:44:41;;;;;;;4.20;3.50;;;;;;;;;;5016521;28;20206;-65
2023/05/02 08:47:11;;;;;;;4.65;3.53;;;;;;;;;;5015465;28;20233;-65
2023/05/02 08:49:39;;;;;;;3.75;3.33;;;;;;;;;;5015429;28;20238;-65
2023/05/02 08:52:10;;;;;;;3.75;3.38;;;;;;;;;;5015779;28;20327;-65
2023/05/02 08:54:38;;;;;;;3.47;3.17;;;;;;;;;;5015498;28;20206;-65
2023/05/02 08:57:06;;;;;;;3.28;2.92;;;;;;;;;;5015891;28;20206;-65
2023/05/02 08:59:35;;;;;;;4.25;3.20;;;;;;;;;;5015818;28;20229;-65
2023/05/02 09:02:06;;;;;;;3.33;3.03;;;;;;;;;;5015979;28;20227;-65
2023/05/02 09:04:35;;;;;;;3.85;3.35;;;;;;;;;;5014878;28;20507;-64
2023/05/02 09:07:02;;;;;;;3.60;3.25;;;;;;;;;;5015375;28;20242;-64
2023/05/02 09:09:31;;;;;;;3.88;3.47;;;;;;;;;;5015275;28;20574;-64
2023/05/02 09:11:59;;;;;;;3.88;3.45;;;;;;;;;;5015476;28;20238;-64
2023/05/02 09:14:27;;;;;;;3.75;3.15;;;;;;;;;;5014467;28;20245;-64
2023/05/02 09:17:00;;;;;;;3.90;3.15;;;;;;;;;;5015193;28;20242;-64
2023/05/02 09:19:28;;;;;;;3.90;3.20;;;;;;;;;;5015686;28;20198;-64
2023/05/02 09:22:00;;;;;;;3.38;3.08;;;;;;;;;;5015304;28;20230;-64
2023/05/02 09:24:27;;;;;;;3.30;3.00;;;;;;;;;;5015201;28;20606;-64
2023/05/02 09:26:59;;;;;;;3.50;3.20;;;;;;;;;;5014711;28;20309;-64
2023/05/02 09:29:29;;;;;;;5.10;3.35;;;;;;;;;;5014295;28;20308;-65
2023/05/02 09:31:57;;;;;;;4.18;3.25;;;;;;;;;;5014737;28;20228;-65
2023/05/02 09:34:26;;;;;;;3.95;3.55;;;;;;;;;;5014454;28;20210;-65
2023/05/02 09:36:53;;;;;;;3.97;3.45;;;;;;;;;;5013059;28;20301;-65
2023/05/02 09:39:22;;;;;;;3.30;3.00;;;;;;;;;;5013700;28;20586;-65
2023/05/02 09:41:49;;;;;;;3.70;3.35;;;;;;;;;;5017178;28;20261;-65
2023/05/02 09:44:18;;;;;;;3.53;3.22;;;;;;;;;;5018273;28;20309;-65
2023/05/02 09:46:46;;;;;;;3.28;2.97;;;;;;;;;;5018350;28;20213;-65
2023/05/02 09:49:13;;;;;;;3.78;3.22;;;;;;;;;;5018469;28;20237;-65
2023/05/02 09:51:42;;;;;;;3.13;2.83;;;;;;;;;;5017941;28;20206;-65
2023/05/02 09:54:10;;;;;;;3.33;3.00;;;;;;;;;;5016917;28;20278;-65
2023/05/02 09:56:53;;;;;;;3.42;3.13;;;;;;;;;;5016206;28;20288;-65
2023/05/02 09:59:20;;;;;;;3.50;3.10;;;;;;;;;;5018192;28;20499;-65
2023/05/02 10:01:55;;;;;;;4.00;3.45;;;;;;;;;;5017507;28;20270;-65
2023/05/02 10:04:22;;;;;;;3.47;3.17;;;;;;;;;;5017276;28;20212;-65
2023/05/02 10:06:52;;;;;;;3.40;3.10;;;;;;;;;;5018226;28;20370;-65
2023/05/02 10:09:20;;;;;;;3.38;3.08;;;;;;;;;;5018554;28;20246;-65
2023/05/02 10:11:47;;;;;;;3.33;3.03;;;;;;;;;;5017474;28;20287;-65
2023/05/02 10:14:16;;;;;;;4.82;3.22;;;;;;;;;;5017536;28;20304;-65
2023/05/02 10:16:48;;;;;;;4.07;3.20;;;;;;;;;;5017240;28;20301;-64
2023/05/02 10:19:19;;;;;;;3.42;3.08;;;;;;;;;;5015919;28;20268;-65
2023/05/02 10:21:47;;;;;;;3.08;2.88;;;;;;;;;;5017642;28;20333;-65
2023/05/02 10:24:17;;;;;;;3.28;2.97;;;;;;;;;;5018134;28;20326;-65
2023/05/02 10:26:45;;;;;;;4.30;3.13;;;;;;;;;;5017423;28;20272;-64
2023/05/02 10:29:14;;;;;;;3.80;3.10;;;;;;;;;;5016794;28;20238;-64
2023/05/02 10:31:42;;;;;;;3.80;3.10;;;;;;;;;;5017293;28;20206;-64
2023/05/02 10:34:12;;;;;;;3.85;3.17;;;;;;;;;;5017136;28;20229;-65
2023/05/02 10:36:39;;;;;;;4.15;3.65;;;;;;;;;;5016706;28;20301;-65
2023/05/02 10:39:07;;;;;;;4.80;4.20;;;;;;;;;;5016436;28;20268;-64
2023/05/02 10:41:36;;;;;;;4.10;3.70;;;;;;;;;;5015769;28;20288;-64
2023/05/02 10:44:06;;;;;;;4.40;3.45;;;;;;;;;;5015649;28;20304;-64
2023/05/02 10:46:34;;;;;;;4.15;3.45;;;;;;;;;;5016372;28;20582;-64
2023/05/02 10:49:03;;;;;;;3.80;3.45;;;;;;;;;;5015857;28;20230;-64
2023/05/02 10:51:31;;;;;;;3.55;3.25;;;;;;;;;;5016449;28;20210;-64
2023/05/02 10:54:28;;;;;;;4.72;4.32;;;;;;;;;;5015146;28;20678;-64
2023/05/02 10:57:04;;;;;;;12.18;10.98;;;;;;;;;;4956085;29;20200;-64
2023/05/02 10:59:32;;;;;;;12.93;11.45;;;;;;;;;;5005779;28;20210;-64
2023/05/02 11:02:00;;;;;;;14.38;12.98;;;;;;;;;;5016763;28;20540;-64
2023/05/02 11:04:48;;;;;;;12.88;11.68;;;;;;;;;;5017070;28;20202;-64
2023/05/02 11:07:19;;;;;;;12.55;11.35;;;;;;;;;;5016507;28;20751;-64
2023/05/02 11:09:46;;;;;;;12.13;10.93;;;;;;;;;;5016027;28;20209;-64
2023/05/02 11:12:35;;;;;;;11.65;10.48;;;;;;;;;;5015428;28;20230;-64
2023/05/02 11:15:03;;;;;;;10.80;9.80;;;;;;;;;;5015323;28;20237;-64
2023/05/02 11:17:50;;;;;;;11.13;10.02;;;;;;;;;;5016159;28;20206;-64
2023/05/02 11:20:21;;;;;;;9.88;8.95;;;;;;;;;;5016388;28;20580;-64
2023/05/02 11:22:49;;;;;;;9.43;8.52;;;;;;;;;;5016064;28;20324;-64
2023/05/02 11:25:32;;;;;;;9.63;8.73;;;;;;;;;;5016157;28;20300;-64
2023/05/02 11:28:02;;;;;;;9.32;8.43;;;;;;;;;;5015569;28;20304;-64
2023/05/02 11:30:40;;;;;;;9.07;8.27;;;;;;;;;;5015465;28;20198;-64
2023/05/02 11:33:18;;;;;;;8.50;7.70;;;;;;;;;;5015884;28;20198;-64
2023/05/02 11:35:46;;;;;;;8.40;7.60;;;;;;;;;;5016008;28;20206;-64
2023/05/02 11:38:15;;;;;;;7.93;7.22;;;;;;;;;;5014731;28;20206;-64
2023/05/02 11:40:50;;;;;;;8.13;7.43;;;;;;;;;;5015245;28;20288;-65
2023/05/02 11:43:21;;;;;;;7.75;7.05;;;;;;;;;;5014359;28;20226;-65
2023/05/02 11:45:50;;;;;;;8.70;7.90;;;;;;;;;;5015443;28;20578;-65
2023/05/02 11:48:18;;;;;;;6.97;6.38;;;;;;;;;;5014394;28;20209;-65
2023/05/02 11:50:47;;;;;;;7.03;6.43;;;;;;;;;;5014009;28;20202;-65
2023/05/02 11:53:15;;;;;;;6.80;6.20;;;;;;;;;;5015273;28;20241;-65
2023/05/02 11:55:46;;;;;;;6.90;6.30;;;;;;;;;;5014694;28;20597;-65
2023/05/02 11:58:15;;;;;;;6.88;6.28;;;;;;;;;;5015762;28;20260;-64
2023/05/02 12:00:46;;;;;;;6.53;5.93;;;;;;;;;;5015263;28;20206;-64
2023/05/02 12:03:34;;;;;;;5.97;5.47;;;;;;;;;;5014984;28;20288;-64
2023/05/02 12:06:10;;;;;;;6.20;5.60;;;;;;;;;;5009630;28;20238;-64
2023/05/02 12:08:38;;;;;;;6.20;5.70;;;;;;;;;;5014752;28;20212;-64
2023/05/02 12:11:06;;;;;;;6.32;5.70;;;;;;;;;;5014983;28;20268;-64
2023/05/02 12:13:34;;;;;;;5.55;5.05;;;;;;;;;;5014720;28;20202;-64
2023/05/02 12:16:03;;;;;;;6.15;5.65;;;;;;;;;;5014692;28;20214;-64
2023/05/02 12:18:31;;;;;;;5.85;5.35;;;;;;;;;;5015085;28;20214;-64
2023/05/02 12:20:59;;;;;;;5.55;4.97;;;;;;;;;;5015420;28;20206;-64
2023/05/02 12:23:26;;;;;;;5.57;5.07;;;;;;;;;;5014864;28;20257;-64
2023/05/02 12:25:54;;;;;;;5.53;5.03;;;;;;;;;;5014664;28;20202;-64
2023/05/02 12:28:22;;;;;;;5.90;5.40;;;;;;;;;;5014890;28;20203;-64
2023/05/02 12:30:52;;;;;;;5.32;4.82;;;;;;;;;;5014574;28;20298;-64
2023/05/02 12:33:21;;;;;;;5.38;4.90;;;;;;;;;;5014855;28;20238;-65
2023/05/02 12:35:50;;;;;;;5.32;4.82;;;;;;;;;;5015101;28;20206;-65
2023/05/02 12:38:19;;;;;;;5.03;4.63;;;;;;;;;;5013997;28;20605;-65
2023/05/02 12:40:51;;;;;;;5.43;4.82;;;;;;;;;;5013580;28;20564;-65
2023/05/02 12:43:18;;;;;;;5.20;4.50;;;;;;;;;;5012987;28;20258;-65
2023/05/02 12:45:47;;;;;;;5.10;4.68;;;;;;;;;;5013410;28;20301;-65
2023/05/02 12:48:23;;;;;;;5.03;4.63;;;;;;;;;;5012948;28;20487;-65
2023/05/02 12:50:50;;;;;;;4.78;4.38;;;;;;;;;;5013489;28;20236;-65
2023/05/02 12:53:18;;;;;;;4.95;4.50;;;;;;;;;;5014453;28;20202;-65
2023/05/02 12:55:46;;;;;;;4.55;4.15;;;;;;;;;;5014047;28;20567;-65
2023/05/02 12:58:15;;;;;;;5.00;4.30;;;;;;;;;;5013958;28;20206;-65
2023/05/02 13:00:43;;;;;;;4.82;4.32;;;;;;;;;;5014331;28;20209;-64
2023/05/02 13:03:11;;;;;;;4.82;4.15;;;;;;;;;;5012626;28;20226;-64
2023/05/02 13:05:40;;;;;;;5.25;4.57;;;;;;;;;;5014548;28;20669;-64
2023/05/02 13:08:07;;;;;;;4.68;4.28;;;;;;;;;;5014140;28;20202;-64
2023/05/02 13:10:34;;;;;;;4.63;4.15;;;;;;;;;;5013502;28;20297;-64
2023/05/02 13:13:02;;;;;;;4.95;4.45;;;;;;;;;;5013104;28;20668;-64
2023/05/02 13:15:29;;;;;;;4.80;4.35;;;;;;;;;;5013333;28;20207;-64
2023/05/02 13:17:57;;;;;;;4.57;4.18;;;;;;;;;;5013940;28;20293;-64
2023/05/02 13:20:24;;;;;;;4.80;4.28;;;;;;;;;;5013013;28;20204;-64
2023/05/02 13:22:53;;;;;;;4.55;4.15;;;;;;;;;;5013368;28;20232;-65
2023/05/02 13:25:21;;;;;;;4.85;3.80;;;;;;;;;;5013662;28;20320;-65
2023/05/02 13:27:48;;;;;;;5.57;3.95;;;;;;;;;;5014544;28;20632;-65
2023/05/02 13:30:16;;;;;;;4.40;4.00;;;;;;;;;;5014152;28;20245;-65
2023/05/02 13:32:43;;;;;;;4.00;3.60;;;;;;;;;;5013623;28;20237;-65
2023/05/02 13:35:12;;;;;;;4.15;3.75;;;;;;;;;;5013809;28;20238;-65
2023/05/02 13:37:40;;;;;;;4.30;3.90;;;;;;;;;;5013600;28;20229;-65
2023/05/02 13:40:10;;;;;;;4.68;3.38;;;;;;;;;;5013464;28;20202;-65
2023/05/02 13:42:37;;;;;;;4.28;3.95;;;;;;;;;;5013154;28;20206;-65
2023/05/02 13:45:06;;;;;;;3.67;3.38;;;;;;;;;;5012910;28;20305;-65
2023/05/02 13:47:34;;;;;;;4.30;3.88;;;;;;;;;;5012976;28;20217;-65
2023/05/02 13:50:01;;;;;;;3.95;3.60;;;;;;;;;;5013162;28;20217;-65
2023/05/02 13:52:30;;;;;;;3.58;3.28;;;;;;;;;;5013438;28;20203;-65
2023/05/02 13:54:57;;;;;;;3.00;2.80;;;;;;;;;;5013274;28;20469;-65
2023/05/02 13:57:26;;;;;;;3.40;3.10;;;;;;;;;;5013610;28;20304;-65
2023/05/02 13:59:54;;;;;;;3.55;3.25;;;;;;;;;;5013225;28;20762;-65
2023/05/02 14:02:21;;;;;;;4.28;3.20;;;;;;;;;;5012913;28;20601;-65
2023/05/02 14:04:49;;;;;;;3.65;3.35;;;;;;;;;;5013291;28;20265;-65
2023/05/02 14:07:16;;;;;;;4.22;3.10;;;;;;;;;;5013794;28;20242;-65
2023/05/02 14:09:44;;;;;;;3.60;3.30;;;;;;;;;;5013598;28;20198;-65
2023/05/02 14:12:12;;;;;;;3.25;2.95;;;;;;;;;;5019708;28;20234;-64
2023/05/02 14:14:41;;;;;;;3.00;2.63;;;;;;;;;;5013582;28;20293;-64
2023/05/02 14:17:09;;;;;;;3.35;2.88;;;;;;;;;;5012742;28;20626;-65
2023/05/02 14:19:37;;;;;;;4.00;2.72;;;;;;;;;;5013238;28;20202;-64
2023/05/02 14:22:06;;;;;;;2.95;2.75;;;;;;;;;;5013661;28;20207;-65
2023/05/02 14:24:34;;;;;;;4.00;3.13;;;;;;;;;;5014005;28;20317;-65
2023/05/02 14:27:03;;;;;;;2.55;2.35;;;;;;;;;;5014250;28;20293;-66
2023/05/02 14:29:30;;;;;;;3.20;2.88;;;;;;;;;;5016552;28;20198;-64
2023/05/02 14:32:00;;;;;;;3.78;2.70;;;;;;;;;;5017035;28;20854;-64
2023/05/02 14:34:28;;;;;;;2.58;2.38;;;;;;;;;;5015407;28;20487;-64
2023/05/02 14:36:55;;;;;;;2.95;2.70;;;;;;;;;;5017077;28;20206;-64
2023/05/02 14:39:22;;;;;;;2.60;2.40;;;;;;;;;;5017198;28;20233;-64
2023/05/02 14:41:50;;;;;;;3.10;2.30;;;;;;;;;;5017093;28;20213;-65
2023/05/02 14:44:17;;;;;;;2.50;2.30;;;;;;;;;;5017394;28;20325;-65
2023/05/02 14:46:46;;;;;;;2.63;2.42;;;;;;;;;;5016673;28;20250;-65
2023/05/02 14:49:15;;;;;;;2.67;2.47;;;;;;;;;;5017305;28;20847;-65
2023/05/02 14:51:46;;;;;;;3.63;2.35;;;;;;;;;;5016860;28;20468;-65
2023/05/02 14:54:14;;;;;;;2.72;2.53;;;;;;;;;;5016539;28;20257;-65